ADDS METAR Data INFO
IDs: Format: Raw Decoded Include TAF

Data at: 1009 UTC 22 May 2018

KPGA 220853Z AUTO 00000KT 10SM CLR 21/M07 A2982 RMK AO2 SLP033 T02111072 58005 TSNO
KPGA 220753Z AUTO 23006KT 10SM FEW110 21/M04 A2984 RMK AO2 SLP038 T02061044 TSNO
KPGA 220653Z AUTO 16006KT 10SM CLR 21/M03 A2985 RMK AO2 SLP042 T02061033 402940150 TSNO
KPGA 220553Z AUTO 12004KT 10SM CLR 22/M04 A2984 RMK AO2 SLP041 T02171039 10278 20217 51012 TSNO
KPGA 220453Z AUTO 31005KT 10SM CLR 23/M04 A2983 RMK AO2 SLP040 T02281044 TSNO
KPGA 220353Z AUTO 32008KT 10SM CLR 23/M04 A2982 RMK AO2 SLP037 T02331039 TSNO
KPGA 220253Z AUTO VRB03KT 10SM CLR 24/M06 A2980 RMK AO2 SLP029 T02441056 53005 TSNO
KPGA 220153Z AUTO 27004KT 10SM CLR 26/M08 A2978 RMK AO2 SLP024 T02611083 TSNO
KPGA 220053Z AUTO VRB06KT 10SM CLR 27/M08 A2977 RMK AO2 SLP022 T02671083 TSNO
KPGA 212353Z AUTO VRB05KT 10SM CLR 27/M09 A2978 RMK AO2 SLP026 T02721089 10294 20256 58014 TSNO
KPGA 212253Z AUTO 23005KT 10SM CLR 27/M11 A2980 RMK AO2 SLP032 T02671106 TSNO
KPGA 212153Z AUTO 19010G20KT 10SM CLR 27/M14 A2981 RMK AO2 SLP036 T02721139 TSNO
KPGA 212053Z AUTO 18012G19KT 10SM CLR 28/M12 A2983 RMK AO2 SLP036 T02831117 56021 TSNO
KPGA 211953Z AUTO 21007KT 10SM CLR 28/M11 A2985 RMK AO2 SLP042 T02831111 TSNO
KPGA 211853Z AUTO 20009G15KT 170V230 10SM CLR 28/M10 A2987 RMK AO2 SLP049 T02781100 TSNO
KPGA 211753Z AUTO VRB04KT 10SM CLR 26/M05 A2990 RMK AO2 SLP060 T02561050 10261 20150 58007 TSNO
KPGA 211653Z AUTO 36005KT 10SM CLR 24/M05 A2991 RMK AO2 SLP062 T02391050 TSNO
KPGA 211553Z AUTO 36005KT 10SM CLR 22/M03 A2992 RMK AO2 SLP068 T02221033 TSNO
KPGA 211453Z AUTO 00000KT 10SM CLR 21/M06 A2992 RMK AO2 SLP070 T02061056 51011 TSNO
KPGA 211353Z AUTO 13003KT 10SM CLR 18/M06 A2991 RMK AO2 SLP068 T01831061 TSNO
KPGA 211253Z AUTO 00000KT 10SM CLR 17/M07 A2990 RMK AO2 SLP065 T01671067 TSNO
KPGA 211153Z AUTO 00000KT 10SM CLR 16/M07 A2988 RMK AO2 SLP058 T01611072 10222 20156 51006 TSNO
KPGA 211053Z AUTO 00000KT 10SM CLR 17/M09 A2988 RMK AO2 SLP057 T01671089 TSNO
KPGA 210953Z AUTO 23003KT 10SM CLR 17/M08 A2987 RMK AO2 SLP055 T01671083 TSNO
KPGA 210853Z AUTO 20006KT 10SM CLR 19/M10 A2986 RMK AO2 SLP049 T01941100 50001 TSNO
KPGA 210753Z AUTO 20006KT 10SM CLR 21/M11 A2987 RMK AO2 SLP051 T02061106 TSNO
KPGA 210653Z AUTO 22003KT 10SM CLR 21/M10 A2986 RMK AO2 SLP048 T02111100 402890167 TSNO
KPGA 210553Z AUTO 20005KT 10SM CLR 22/M10 A2986 RMK AO2 SLP045 T02221100 10289 20222 51015 TSNO
KPGA 210453Z AUTO 22007KT 10SM CLR 26/M10 A2985 RMK AO2 SLP039 T02561100 TSNO
KPGA 210353Z AUTO 19006KT 10SM CLR 25/M04 A2983 RMK AO2 SLP035 T02501039 TSNO
KPGA 210253Z AUTO 00000KT 10SM CLR 26/M04 A2981 RMK AO2 SLP029 T02611039 55000 TSNO
KPGA 210153Z AUTO 03004KT 10SM CLR 27/M04 A2981 RMK AO2 SLP030 T02721039 TSNO
KPGA 210053Z AUTO 06003KT 10SM CLR 28/M03 A2980 RMK AO2 SLP030 T02781033 TSNO
KPGA 202353Z AUTO 02008KT 10SM CLR 29/M03 A2981 RMK AO2 SLP031 60000 T02891028 10289 20261 56018 TSNO
KPGA 202253Z AUTO 30006KT 10SM CLR 28/M03 A2983 RMK AO2 SLP036 T02831028 TSNO